createdAt,value
2022-10-05T00:00:48.733Z,8.79
2022-10-05T00:03:36.884Z,8.80
2022-10-05T00:06:05.044Z,8.79
2022-10-05T00:08:36.221Z,8.78
2022-10-05T00:11:07.452Z,8.79
2022-10-05T00:13:35.291Z,8.80
2022-10-05T00:16:16.905Z,8.78
2022-10-05T00:18:51.327Z,8.77
2022-10-05T00:21:25.504Z,8.78
2022-10-05T00:23:56.475Z,8.77
2022-10-05T00:26:27.110Z,8.77
2022-10-05T00:28:55.405Z,8.77
2022-10-05T00:31:30.657Z,8.75
2022-10-05T00:33:58.967Z,8.75
2022-10-05T00:36:26.839Z,8.76
2022-10-05T00:38:55.423Z,8.74
2022-10-05T00:41:42.238Z,8.74
2022-10-05T00:44:41.828Z,8.75
2022-10-05T00:47:28.359Z,8.75
2022-10-05T00:50:11.950Z,8.74
2022-10-05T00:52:58.025Z,8.73
2022-10-05T00:55:57.677Z,8.72
2022-10-05T00:59:01.618Z,8.73
2022-10-05T01:01:41.245Z,8.74
2022-10-05T01:04:14.859Z,8.74
2022-10-05T01:06:42.710Z,8.73
2022-10-05T01:09:29.862Z,8.70
2022-10-05T01:12:28.483Z,8.66
2022-10-05T01:15:12.105Z,8.64
2022-10-05T01:17:43.029Z,8.59
2022-10-05T01:20:27.281Z,8.56
2022-10-05T01:23:13.524Z,8.56
2022-10-05T01:25:51.555Z,8.55
2022-10-05T01:28:28.514Z,8.55
2022-10-05T01:31:01.899Z,8.55
2022-10-05T01:33:50.650Z,8.54
2022-10-05T01:36:34.299Z,8.52
2022-10-05T01:39:22.270Z,8.52
2022-10-05T01:42:25.877Z,8.54
2022-10-05T01:45:15.738Z,8.56
2022-10-05T01:47:47.329Z,8.56
2022-10-05T01:50:33.764Z,8.57
2022-10-05T01:53:12.819Z,8.58
2022-10-05T01:55:52.305Z,8.58
2022-10-05T01:58:39.695Z,8.56
2022-10-05T02:01:30.810Z,8.57
2022-10-05T02:04:09.034Z,8.56
2022-10-05T02:06:42.070Z,8.54
2022-10-05T02:09:28.914Z,8.53
2022-10-05T02:12:15.536Z,8.51
2022-10-05T02:14:47.484Z,8.52
2022-10-05T02:17:19.490Z,8.51
2022-10-05T02:20:01.877Z,8.50
2022-10-05T02:22:35.548Z,8.49
2022-10-05T02:25:09.769Z,8.48
2022-10-05T02:27:45.726Z,8.46
2022-10-05T02:30:16.915Z,8.45
2022-10-05T02:32:54.769Z,8.45
2022-10-05T02:35:23.602Z,8.45
2022-10-05T02:38:07.757Z,8.45
2022-10-05T02:40:50.053Z,8.43
2022-10-05T02:43:34.568Z,8.42
2022-10-05T02:46:10.804Z,8.42
2022-10-05T02:48:56.823Z,8.43
2022-10-05T02:51:58.130Z,8.42
2022-10-05T02:54:47.341Z,8.42
2022-10-05T02:57:38.956Z,8.42
2022-10-05T03:00:15.440Z,8.42
2022-10-05T03:02:57.632Z,8.41
2022-10-05T03:05:35.444Z,8.40
2022-10-05T03:08:16.401Z,8.40
2022-10-05T03:11:06.709Z,8.41
2022-10-05T03:13:58.256Z,8.42
2022-10-05T03:16:42.163Z,8.41
2022-10-05T03:19:26.030Z,8.43
2022-10-05T03:22:15.789Z,8.44
2022-10-05T03:24:52.825Z,8.47
2022-10-05T03:27:50.693Z,8.47
2022-10-05T03:30:22.806Z,8.47
2022-10-05T03:32:54.774Z,8.48
2022-10-05T03:35:38.799Z,8.48
2022-10-05T03:38:30.116Z,8.47
2022-10-05T03:41:07.506Z,8.47
2022-10-05T03:44:00.226Z,8.47
2022-10-05T03:46:47.145Z,8.46
2022-10-05T03:49:31.207Z,8.44
2022-10-05T03:52:09.946Z,8.42
2022-10-05T03:54:53.655Z,8.41
2022-10-05T03:57:23.191Z,8.38
2022-10-05T04:00:04.898Z,8.36
2022-10-05T04:03:01.569Z,8.35
2022-10-05T04:05:51.908Z,8.34
2022-10-05T04:08:35.251Z,8.31
2022-10-05T04:11:16.130Z,8.29
2022-10-05T04:13:54.735Z,8.27
2022-10-05T04:16:28.211Z,8.25
2022-10-05T04:19:13.847Z,8.24
2022-10-05T04:21:59.042Z,8.23
2022-10-05T04:24:36.582Z,8.24
2022-10-05T04:27:22.790Z,8.25
2022-10-05T04:30:02.271Z,8.27
2022-10-05T04:32:42.480Z,8.29
2022-10-05T04:35:47.416Z,8.30
2022-10-05T04:38:24.239Z,8.32
2022-10-05T04:41:02.470Z,8.33
2022-10-05T04:44:00.627Z,8.32
2022-10-05T04:46:57.097Z,8.30
2022-10-05T04:49:40.832Z,8.27
2022-10-05T04:52:27.294Z,8.25
2022-10-05T04:55:14.385Z,8.23
2022-10-05T04:58:14.069Z,8.23
2022-10-05T05:00:54.367Z,8.22
2022-10-05T05:03:44.297Z,8.21
2022-10-05T05:06:44.564Z,8.22
2022-10-05T05:09:33.320Z,8.23
2022-10-05T05:12:10.999Z,8.23
2022-10-05T05:14:55.559Z,8.23
2022-10-05T05:17:42.312Z,8.23
2022-10-05T05:20:42.101Z,8.23
2022-10-05T05:23:26.977Z,8.20
2022-10-05T05:26:11.258Z,8.20
2022-10-05T05:28:55.678Z,8.19
2022-10-05T05:31:39.555Z,8.19
2022-10-05T05:34:47.950Z,8.20
2022-10-05T05:37:47.819Z,8.20
2022-10-05T05:40:22.138Z,8.21
2022-10-05T05:43:19.833Z,8.22
2022-10-05T05:45:59.062Z,8.23
2022-10-05T05:49:28.721Z,8.23
2022-10-05T05:52:03.556Z,8.23
2022-10-05T05:54:40.951Z,8.24
2022-10-05T05:57:24.657Z,8.26
2022-10-05T05:59:57.645Z,8.29
2022-10-05T06:02:35.320Z,8.31
2022-10-05T06:05:09.948Z,8.34
2022-10-05T06:07:38.603Z,8.35
2022-10-05T06:10:20.631Z,8.38
2022-10-05T06:13:06.444Z,8.42
2022-10-05T06:15:41.462Z,8.46
2022-10-05T06:18:23.921Z,8.52
2022-10-05T06:21:08.543Z,8.58
2022-10-05T06:23:45.134Z,8.62
2022-10-05T06:26:45.491Z,8.65
2022-10-05T06:29:22.722Z,8.71
2022-10-05T06:32:15.767Z,8.77
2022-10-05T06:34:46.658Z,8.85
2022-10-05T06:37:51.059Z,8.93
2022-10-05T06:40:50.745Z,9.04
2022-10-05T06:43:34.883Z,9.22
2022-10-05T06:46:23.651Z,9.36
2022-10-05T06:49:25.114Z,9.47
2022-10-05T06:52:40.380Z,9.60
2022-10-05T06:55:24.341Z,9.72
2022-10-05T06:58:22.015Z,9.83
2022-10-05T07:01:00.676Z,9.93
2022-10-05T07:03:40.662Z,10.01
2022-10-05T07:06:28.014Z,10.08
2022-10-05T07:09:21.917Z,10.14
2022-10-05T07:12:08.789Z,10.20
2022-10-05T07:14:51.640Z,10.26
2022-10-05T07:17:26.351Z,10.33
2022-10-05T07:20:12.217Z,10.40
2022-10-05T07:22:46.425Z,10.49
2022-10-05T07:25:22.944Z,10.58
2022-10-05T07:27:59.407Z,10.68
2022-10-05T07:30:28.654Z,10.76
2022-10-05T07:33:13.793Z,10.85
2022-10-05T07:36:23.600Z,10.92
2022-10-05T07:39:13.410Z,11.01
2022-10-05T07:41:59.064Z,11.07
2022-10-05T07:44:37.358Z,11.14
2022-10-05T07:47:15.613Z,11.23
2022-10-05T07:49:54.453Z,11.29
2022-10-05T07:52:39.768Z,11.34
2022-10-05T07:55:31.326Z,11.42
2022-10-05T07:58:31.242Z,11.53
2022-10-05T08:01:03.009Z,11.56
2022-10-05T08:03:47.044Z,11.60
2022-10-05T08:06:44.643Z,11.63
2022-10-05T08:09:17.601Z,11.67
2022-10-05T08:12:06.436Z,11.71
2022-10-05T08:14:40.022Z,11.79
2022-10-05T08:17:45.389Z,11.88
2022-10-05T08:20:29.967Z,12.00
2022-10-05T08:23:30.134Z,12.15
2022-10-05T08:26:13.832Z,12.29
2022-10-05T08:28:57.521Z,12.36
2022-10-05T08:31:29.942Z,12.40
2022-10-05T08:34:36.632Z,12.44
2022-10-05T08:37:18.122Z,12.52
2022-10-05T08:40:11.773Z,12.62
2022-10-05T08:42:45.397Z,12.79
2022-10-05T08:45:31.802Z,12.94
2022-10-05T08:48:33.611Z,13.11
2022-10-05T08:51:27.197Z,13.24
2022-10-05T08:54:26.798Z,13.35
2022-10-05T08:57:35.609Z,13.41
2022-10-05T09:03:34.891Z,13.54
2022-10-05T09:06:05.793Z,13.60
2022-10-05T09:09:06.863Z,13.60
2022-10-05T09:11:52.122Z,13.59
2022-10-05T09:14:39.384Z,13.61
2022-10-05T09:17:23.610Z,13.64
2022-10-05T09:20:17.264Z,13.69
2022-10-05T09:22:51.101Z,13.74
2022-10-05T09:25:50.879Z,13.76
2022-10-05T09:28:23.043Z,13.78
2022-10-05T09:30:59.132Z,13.81
2022-10-05T09:33:53.203Z,13.84
2022-10-05T09:36:36.786Z,13.86
2022-10-05T09:39:36.416Z,13.86
2022-10-05T09:42:20.372Z,13.87
2022-10-05T09:45:31.244Z,13.88
2022-10-05T09:48:17.679Z,13.88
2022-10-05T09:50:45.368Z,13.89
2022-10-05T09:53:45.223Z,13.92
2022-10-05T09:59:28.045Z,14.03
2022-10-05T10:02:17.660Z,14.16
2022-10-05T10:05:05.586Z,14.26
2022-10-05T10:07:51.802Z,14.32
2022-10-05T10:10:53.022Z,14.41
2022-10-05T10:13:35.616Z,14.65
2022-10-05T10:16:35.246Z,14.89
2022-10-05T10:19:09.865Z,15.08
2022-10-05T10:22:10.172Z,15.21
2022-10-05T10:25:04.429Z,15.33
2022-10-05T10:28:04.163Z,15.39
2022-10-05T10:31:08.415Z,15.46
2022-10-05T10:34:08.228Z,15.43
2022-10-05T10:36:45.181Z,15.43
2022-10-05T10:39:45.192Z,15.47
2022-10-05T10:42:33.986Z,15.46
2022-10-05T10:45:19.288Z,15.43
2022-10-05T10:47:53.067Z,15.49
2022-10-05T10:50:39.568Z,15.56
2022-10-05T10:53:36.311Z,15.60
2022-10-05T10:56:30.112Z,15.60
2022-10-05T10:59:31.633Z,15.59
2022-10-05T11:02:18.726Z,15.58
2022-10-05T11:05:18.603Z,15.61
2022-10-05T11:07:55.206Z,15.60
2022-10-05T11:10:38.945Z,15.58
2022-10-05T11:13:16.884Z,15.58
2022-10-05T11:19:07.373Z,15.63
2022-10-05T11:21:44.263Z,15.68
2022-10-05T11:24:20.782Z,15.73
2022-10-05T11:26:51.630Z,15.77
2022-10-05T11:29:35.450Z,15.75
2022-10-05T11:32:35.190Z,15.72
2022-10-05T11:35:18.960Z,15.70
2022-10-05T11:38:02.583Z,15.72
2022-10-05T11:40:55.147Z,15.76
2022-10-05T11:43:38.779Z,15.81
2022-10-05T11:46:22.430Z,15.83
2022-10-05T11:49:04.337Z,15.81
2022-10-05T11:51:37.895Z,15.80
2022-10-05T11:54:27.210Z,15.80
2022-10-05T11:57:11.460Z,15.82
2022-10-05T11:59:49.320Z,15.83
2022-10-05T12:02:38.860Z,15.82
2022-10-05T12:05:28.287Z,15.83
2022-10-05T12:08:16.727Z,15.85
2022-10-05T12:11:06.704Z,15.88
2022-10-05T12:13:53.169Z,15.87
2022-10-05T12:16:25.927Z,15.89
2022-10-05T12:19:08.448Z,15.92
2022-10-05T12:21:52.518Z,15.96
2022-10-05T12:24:36.286Z,15.97
2022-10-05T12:27:23.045Z,16.00
2022-10-05T12:30:12.280Z,16.06
2022-10-05T12:33:12.323Z,16.13
2022-10-05T12:36:00.554Z,16.35
2022-10-05T12:38:44.893Z,16.55
2022-10-05T12:41:32.005Z,16.66
2022-10-05T12:44:24.056Z,16.67
2022-10-05T12:47:17.144Z,16.62
2022-10-05T12:50:03.809Z,16.53
2022-10-05T12:53:03.415Z,16.47
2022-10-05T12:55:40.205Z,16.40
2022-10-05T12:58:41.054Z,16.35
2022-10-05T13:01:46.726Z,16.28
2022-10-05T13:04:46.939Z,16.18
2022-10-05T13:07:41.636Z,16.07
2022-10-05T13:10:35.281Z,15.98
2022-10-05T13:13:35.031Z,15.90
2022-10-05T13:16:17.998Z,15.81
2022-10-05T13:19:24.412Z,15.74
2022-10-05T13:22:01.118Z,15.67
2022-10-05T13:24:39.588Z,15.62
2022-10-05T13:27:23.656Z,15.56
2022-10-05T13:29:58.323Z,15.54
2022-10-05T13:32:45.497Z,15.51
2022-10-05T13:35:29.109Z,15.49
2022-10-05T13:38:02.807Z,15.48
2022-10-05T13:40:39.095Z,15.44
2022-10-05T13:43:21.387Z,15.41
2022-10-05T13:46:06.766Z,15.36
2022-10-05T13:48:57.592Z,15.31
2022-10-05T13:51:35.326Z,15.24
2022-10-05T13:54:23.022Z,15.19
2022-10-05T13:57:17.152Z,15.14
2022-10-05T13:59:53.671Z,15.10
2022-10-05T14:02:38.769Z,15.09
2022-10-05T14:05:23.821Z,15.06
2022-10-05T14:07:56.500Z,15.03
2022-10-05T14:10:41.827Z,15.02
2022-10-05T14:13:13.400Z,15.02
2022-10-05T14:15:42.351Z,15.03
2022-10-05T14:18:27.653Z,15.03
2022-10-05T14:21:08.618Z,15.04
2022-10-05T14:23:36.349Z,15.05
2022-10-05T14:26:37.061Z,15.05
2022-10-05T14:29:24.057Z,15.05
2022-10-05T14:31:55.242Z,15.06
2022-10-05T14:34:56.084Z,15.06
2022-10-05T14:37:31.110Z,15.05
2022-10-05T14:40:20.615Z,15.03
2022-10-05T14:42:49.871Z,15.01
2022-10-05T14:45:24.980Z,14.98
2022-10-05T14:48:02.389Z,14.95
2022-10-05T14:50:31.296Z,14.92
2022-10-05T14:53:16.982Z,14.88
2022-10-05T14:56:11.157Z,14.83
2022-10-05T14:59:01.743Z,14.80
2022-10-05T15:01:32.080Z,14.76
2022-10-05T15:04:13.853Z,14.72
2022-10-05T15:07:09.373Z,14.69
2022-10-05T15:10:08.961Z,14.64
2022-10-05T15:12:49.171Z,14.59
2022-10-05T15:15:42.691Z,14.55
2022-10-05T15:18:10.335Z,14.53
2022-10-05T15:21:04.520Z,14.50
2022-10-05T15:23:41.107Z,14.47
2022-10-05T15:26:29.725Z,14.43
2022-10-05T15:29:36.769Z,14.40
2022-10-05T15:32:22.949Z,14.37
2022-10-05T15:34:59.601Z,14.31
2022-10-05T15:37:44.745Z,14.28
2022-10-05T15:40:21.569Z,14.25
2022-10-05T15:42:54.378Z,14.22
2022-10-05T15:45:43.728Z,14.17
2022-10-05T15:48:20.556Z,14.09
2022-10-05T15:51:07.052Z,14.01
2022-10-05T15:54:18.266Z,13.94
2022-10-05T15:56:56.310Z,13.88
2022-10-05T15:59:34.887Z,13.81
2022-10-05T16:02:14.581Z,13.73
2022-10-05T16:05:05.969Z,13.64
2022-10-05T16:08:08.141Z,13.57
2022-10-05T16:10:43.698Z,13.51
2022-10-05T16:13:29.783Z,13.45
2022-10-05T16:16:30.492Z,13.41
2022-10-05T16:19:21.406Z,13.35
2022-10-05T16:22:07.808Z,13.30
2022-10-05T16:25:08.446Z,13.25
2022-10-05T16:28:02.990Z,13.20
2022-10-05T16:31:07.339Z,13.15
2022-10-05T16:33:52.851Z,13.12
2022-10-05T16:36:31.799Z,13.09
2022-10-05T16:39:14.105Z,13.04
2022-10-05T16:42:11.764Z,13.02
2022-10-05T16:45:06.865Z,12.99
2022-10-05T16:47:44.135Z,12.95
2022-10-05T16:50:21.701Z,12.92
2022-10-05T16:53:02.317Z,12.89
2022-10-05T16:55:41.965Z,12.86
2022-10-05T16:58:31.298Z,12.84
2022-10-05T17:01:21.237Z,12.81
2022-10-05T17:04:05.972Z,12.80
2022-10-05T17:06:48.665Z,12.77
2022-10-05T17:09:22.700Z,12.75
2022-10-05T17:12:10.301Z,12.72
2022-10-05T17:14:55.089Z,12.69
2022-10-05T17:17:38.097Z,12.67
2022-10-05T17:20:11.766Z,12.64
2022-10-05T17:22:59.515Z,12.62
2022-10-05T17:25:45.971Z,12.59
2022-10-05T17:28:24.172Z,12.57
2022-10-05T17:31:08.183Z,12.55
2022-10-05T17:33:55.807Z,12.52
2022-10-05T17:36:42.861Z,12.49
2022-10-05T17:39:16.851Z,12.46
2022-10-05T17:41:45.257Z,12.42
2022-10-05T17:44:19.514Z,12.40
2022-10-05T17:46:50.204Z,12.37
2022-10-05T17:49:39.546Z,12.34
2022-10-05T17:52:43.137Z,12.31
2022-10-05T17:55:38.257Z,12.27
2022-10-05T17:58:26.129Z,12.24
2022-10-05T18:00:56.828Z,12.22
2022-10-05T18:03:44.431Z,12.21
2022-10-05T18:06:37.307Z,12.20
2022-10-05T18:09:20.967Z,12.19
2022-10-05T18:12:06.122Z,12.17
2022-10-05T18:15:06.255Z,12.14
2022-10-05T18:17:51.329Z,12.11
2022-10-05T18:20:28.629Z,12.08
2022-10-05T18:23:02.739Z,12.07
2022-10-05T18:25:52.191Z,12.04
2022-10-05T18:28:42.832Z,12.01
2022-10-05T18:31:30.621Z,11.98
2022-10-05T18:34:17.268Z,11.95
2022-10-05T18:36:57.597Z,11.91
2022-10-05T18:39:41.164Z,11.87
2022-10-05T18:42:31.167Z,11.85
2022-10-05T18:45:17.893Z,11.81
2022-10-05T18:48:15.696Z,11.79
2022-10-05T18:50:57.984Z,11.79
2022-10-05T18:53:51.231Z,11.78
2022-10-05T18:56:42.242Z,11.78
2022-10-05T18:59:25.847Z,11.76
2022-10-05T19:02:06.323Z,11.73
2022-10-05T19:05:00.473Z,11.70
2022-10-05T19:08:00.177Z,11.68
2022-10-05T19:10:45.784Z,11.66
2022-10-05T19:13:31.980Z,11.63
2022-10-05T19:16:32.234Z,11.61
2022-10-05T19:19:30.893Z,11.58
2022-10-05T19:22:16.026Z,11.54
2022-10-05T19:25:13.778Z,11.52
2022-10-05T19:28:13.451Z,11.48
2022-10-05T19:30:50.874Z,11.47
2022-10-05T19:33:50.595Z,11.44
2022-10-05T19:36:50.495Z,11.41
2022-10-05T19:39:48.139Z,11.38
2022-10-05T19:42:31.354Z,11.38
2022-10-05T19:45:15.035Z,11.36
2022-10-05T19:47:56.543Z,11.34
2022-10-05T19:50:24.169Z,11.33
2022-10-05T19:53:17.337Z,11.31
2022-10-05T19:55:47.244Z,11.29
2022-10-05T19:58:38.473Z,11.26
2022-10-05T20:01:06.983Z,11.24
2022-10-05T20:03:38.005Z,11.21
2022-10-05T20:06:08.085Z,11.19
2022-10-05T20:08:52.579Z,11.18
2022-10-05T20:11:21.367Z,11.15
2022-10-05T20:13:51.766Z,11.13
2022-10-05T20:16:47.001Z,11.11
2022-10-05T20:19:48.441Z,11.09
2022-10-05T20:22:37.932Z,11.08
2022-10-05T20:25:08.579Z,11.07
2022-10-05T20:27:42.123Z,11.06
2022-10-05T20:30:11.799Z,11.08
2022-10-05T20:32:39.504Z,11.09
2022-10-05T20:35:07.930Z,11.08
2022-10-05T20:37:36.852Z,11.05
2022-10-05T20:40:06.726Z,11.04
2022-10-05T20:42:34.884Z,11.03
2022-10-05T20:45:04.098Z,11.02
2022-10-05T20:47:33.080Z,11.00
2022-10-05T20:50:04.933Z,10.98
2022-10-05T20:52:32.669Z,10.97
2022-10-05T20:55:01.705Z,10.97
2022-10-05T20:57:29.757Z,10.96
2022-10-05T20:59:57.436Z,10.95
2022-10-05T21:02:25.225Z,10.93
2022-10-05T21:04:53.138Z,10.93
2022-10-05T21:07:21.636Z,10.94
2022-10-05T21:09:50.969Z,10.95
2022-10-05T21:12:18.696Z,10.94
2022-10-05T21:14:47.392Z,10.94
2022-10-05T21:17:15.064Z,10.94
2022-10-05T21:19:43.119Z,10.94
2022-10-05T21:22:10.839Z,10.95
2022-10-05T21:24:40.815Z,10.95
2022-10-05T21:27:10.234Z,10.94
2022-10-05T21:29:40.953Z,10.94
2022-10-05T21:32:11.735Z,10.94
2022-10-05T21:34:41.070Z,10.95
2022-10-05T21:37:09.213Z,10.96
2022-10-05T21:39:36.956Z,10.98
2022-10-05T21:42:04.756Z,10.98
2022-10-05T21:44:32.458Z,11.00
2022-10-05T21:47:01.121Z,11.02
2022-10-05T21:49:29.121Z,11.03
2022-10-05T21:51:58.707Z,11.05
2022-10-05T21:54:27.800Z,11.05
2022-10-05T21:56:57.193Z,11.05
2022-10-05T21:59:31.007Z,11.05
2022-10-05T22:01:58.970Z,11.06
2022-10-05T22:04:26.674Z,11.06
2022-10-05T22:06:55.730Z,11.05
2022-10-05T22:09:23.462Z,11.04
2022-10-05T22:11:51.502Z,11.04
2022-10-05T22:14:19.351Z,11.03
2022-10-05T22:16:47.147Z,11.02
2022-10-05T22:19:18.743Z,11.01
2022-10-05T22:21:46.577Z,11.00
2022-10-05T22:24:14.275Z,10.99
2022-10-05T22:26:45.830Z,10.99
2022-10-05T22:29:16.069Z,10.98
2022-10-05T22:31:48.629Z,10.99
2022-10-05T22:34:18.030Z,11.00
2022-10-05T22:36:47.330Z,10.97
2022-10-05T22:39:16.225Z,10.96
2022-10-05T22:41:43.949Z,10.93
2022-10-05T22:44:11.743Z,10.92
2022-10-05T22:46:39.725Z,10.94
2022-10-05T22:49:07.534Z,10.94
2022-10-05T22:51:35.335Z,10.93
2022-10-05T22:54:03.204Z,10.93
2022-10-05T22:56:30.920Z,10.94
2022-10-05T22:58:58.673Z,10.94
2022-10-05T23:01:27.225Z,10.94
2022-10-05T23:03:57.170Z,10.93
2022-10-05T23:06:27.981Z,10.93
2022-10-05T23:08:55.760Z,10.93
2022-10-05T23:11:26.384Z,10.92
2022-10-05T23:13:59.867Z,10.92
2022-10-05T23:16:28.143Z,10.91
2022-10-05T23:18:56.523Z,10.89
2022-10-05T23:21:27.154Z,10.88
2022-10-05T23:23:55.693Z,10.88
2022-10-05T23:26:25.448Z,10.87
2022-10-05T23:28:53.680Z,10.86
2022-10-05T23:31:23.764Z,10.86
2022-10-05T23:33:52.861Z,10.85
2022-10-05T23:36:27.588Z,10.84
2022-10-05T23:38:55.259Z,10.82
2022-10-05T23:41:23.606Z,10.80
2022-10-05T23:43:52.085Z,10.79
2022-10-05T23:46:19.978Z,10.79
2022-10-05T23:48:48.944Z,10.78
2022-10-05T23:51:17.238Z,10.77
2022-10-05T23:53:45.188Z,10.77
2022-10-05T23:56:13.296Z,10.76
2022-10-05T23:58:41.100Z,10.75
